sensor_id;sensor_type;location;lat;lon;timestamp;P1;durP1;ratioP1;P2;durP2;ratioP2
69956;SDS011;57283;54.816;9.482;2023-06-22T00:01:28;9.63;;;5.50;;
69956;SDS011;57283;54.816;9.482;2023-06-22T00:03:56;10.00;;;4.97;;
69956;SDS011;57283;54.816;9.482;2023-06-22T00:06:23;10.23;;;5.38;;
69956;SDS011;57283;54.816;9.482;2023-06-22T00:08:51;10.18;;;5.25;;
69956;SDS011;57283;54.816;9.482;2023-06-22T00:11:19;8.65;;;4.80;;
69956;SDS011;57283;54.816;9.482;2023-06-22T00:13:48;9.13;;;5.30;;
69956;SDS011;57283;54.816;9.482;2023-06-22T00:16:17;10.20;;;5.23;;
69956;SDS011;57283;54.816;9.482;2023-06-22T00:18:45;8.95;;;5.20;;
69956;SDS011;57283;54.816;9.482;2023-06-22T00:21:13;8.70;;;5.10;;
69956;SDS011;57283;54.816;9.482;2023-06-22T00:23:41;8.23;;;4.70;;
69956;SDS011;57283;54.816;9.482;2023-06-22T00:26:09;10.10;;;5.20;;
69956;SDS011;57283;54.816;9.482;2023-06-22T00:28:37;10.40;;;5.50;;
69956;SDS011;57283;54.816;9.482;2023-06-22T00:31:06;8.77;;;4.72;;
69956;SDS011;57283;54.816;9.482;2023-06-22T00:33:34;10.85;;;5.38;;
69956;SDS011;57283;54.816;9.482;2023-06-22T00:36:02;10.68;;;4.90;;
69956;SDS011;57283;54.816;9.482;2023-06-22T00:38:30;9.27;;;5.40;;
69956;SDS011;57283;54.816;9.482;2023-06-22T00:40:58;11.80;;;5.37;;
69956;SDS011;57283;54.816;9.482;2023-06-22T00:43:25;11.15;;;5.35;;
69956;SDS011;57283;54.816;9.482;2023-06-22T00:45:54;10.63;;;5.60;;
69956;SDS011;57283;54.816;9.482;2023-06-22T00:48:24;10.20;;;5.47;;
69956;SDS011;57283;54.816;9.482;2023-06-22T00:50:52;9.45;;;5.70;;
69956;SDS011;57283;54.816;9.482;2023-06-22T00:53:21;9.20;;;5.07;;
69956;SDS011;57283;54.816;9.482;2023-06-22T00:55:49;10.60;;;5.25;;
69956;SDS011;57283;54.816;9.482;2023-06-22T00:58:18;11.18;;;6.05;;
69956;SDS011;57283;54.816;9.482;2023-06-22T01:00:48;12.40;;;5.57;;
69956;SDS011;57283;54.816;9.482;2023-06-22T01:03:16;8.90;;;5.15;;
69956;SDS011;57283;54.816;9.482;2023-06-22T01:05:45;10.47;;;5.53;;
69956;SDS011;57283;54.816;9.482;2023-06-22T01:08:16;11.80;;;5.60;;
69956;SDS011;57283;54.816;9.482;2023-06-22T01:10:47;9.98;;;5.30;;
69956;SDS011;57283;54.816;9.482;2023-06-22T01:13:22;8.65;;;5.13;;
69956;SDS011;57283;54.816;9.482;2023-06-22T01:15:54;9.48;;;5.53;;
69956;SDS011;57283;54.816;9.482;2023-06-22T01:18:23;10.97;;;5.50;;
69956;SDS011;57283;54.816;9.482;2023-06-22T01:20:54;13.02;;;6.00;;
69956;SDS011;57283;54.816;9.482;2023-06-22T01:23:26;11.45;;;6.30;;
69956;SDS011;57283;54.816;9.482;2023-06-22T01:25:57;8.82;;;5.00;;
69956;SDS011;57283;54.816;9.482;2023-06-22T01:28:39;9.95;;;5.65;;
69956;SDS011;57283;54.816;9.482;2023-06-22T01:31:08;10.13;;;5.73;;
69956;SDS011;57283;54.816;9.482;2023-06-22T01:33:39;10.27;;;5.50;;
69956;SDS011;57283;54.816;9.482;2023-06-22T01:36:08;9.10;;;5.35;;
69956;SDS011;57283;54.816;9.482;2023-06-22T01:38:36;11.68;;;6.05;;
69956;SDS011;57283;54.816;9.482;2023-06-22T01:41:04;9.45;;;5.50;;
69956;SDS011;57283;54.816;9.482;2023-06-22T01:43:32;9.00;;;5.60;;
69956;SDS011;57283;54.816;9.482;2023-06-22T01:46:01;9.75;;;5.60;;
69956;SDS011;57283;54.816;9.482;2023-06-22T01:48:29;10.32;;;5.25;;
69956;SDS011;57283;54.816;9.482;2023-06-22T01:50:57;10.00;;;5.47;;
69956;SDS011;57283;54.816;9.482;2023-06-22T01:53:25;11.45;;;5.50;;
69956;SDS011;57283;54.816;9.482;2023-06-22T01:55:53;10.57;;;5.40;;
69956;SDS011;57283;54.816;9.482;2023-06-22T01:58:20;9.60;;;5.25;;
69956;SDS011;57283;54.816;9.482;2023-06-22T02:00:50;11.63;;;5.32;;
69956;SDS011;57283;54.816;9.482;2023-06-22T02:03:23;10.60;;;5.50;;
69956;SDS011;57283;54.816;9.482;2023-06-22T02:05:52;10.90;;;5.97;;
69956;SDS011;57283;54.816;9.482;2023-06-22T02:08:22;9.57;;;5.27;;
69956;SDS011;57283;54.816;9.482;2023-06-22T02:10:51;9.68;;;4.88;;
69956;SDS011;57283;54.816;9.482;2023-06-22T02:13:20;10.68;;;5.57;;
69956;SDS011;57283;54.816;9.482;2023-06-22T02:15:48;9.88;;;5.57;;
69956;SDS011;57283;54.816;9.482;2023-06-22T02:18:15;8.73;;;5.35;;
69956;SDS011;57283;54.816;9.482;2023-06-22T02:20:44;10.63;;;6.20;;
69956;SDS011;57283;54.816;9.482;2023-06-22T02:23:12;10.23;;;5.78;;
69956;SDS011;57283;54.816;9.482;2023-06-22T02:25:40;12.10;;;6.28;;
69956;SDS011;57283;54.816;9.482;2023-06-22T02:28:10;10.70;;;6.05;;
69956;SDS011;57283;54.816;9.482;2023-06-22T02:30:38;10.77;;;6.35;;
69956;SDS011;57283;54.816;9.482;2023-06-22T02:33:05;11.37;;;6.50;;
69956;SDS011;57283;54.816;9.482;2023-06-22T02:35:33;12.55;;;6.80;;
69956;SDS011;57283;54.816;9.482;2023-06-22T02:38:03;14.88;;;7.28;;
69956;SDS011;57283;54.816;9.482;2023-06-22T02:40:31;12.90;;;6.88;;
69956;SDS011;57283;54.816;9.482;2023-06-22T02:42:59;12.68;;;6.53;;
69956;SDS011;57283;54.816;9.482;2023-06-22T02:45:29;12.87;;;7.00;;
69956;SDS011;57283;54.816;9.482;2023-06-22T02:47:57;12.70;;;6.93;;
69956;SDS011;57283;54.816;9.482;2023-06-22T02:50:24;11.77;;;6.70;;
69956;SDS011;57283;54.816;9.482;2023-06-22T02:52:53;12.13;;;6.85;;
69956;SDS011;57283;54.816;9.482;2023-06-22T02:55:22;11.05;;;6.25;;
69956;SDS011;57283;54.816;9.482;2023-06-22T02:57:50;12.83;;;6.57;;
69956;SDS011;57283;54.816;9.482;2023-06-22T03:00:19;12.40;;;6.03;;
69956;SDS011;57283;54.816;9.482;2023-06-22T03:02:48;11.40;;;6.38;;
69956;SDS011;57283;54.816;9.482;2023-06-22T03:05:16;10.85;;;6.22;;
69956;SDS011;57283;54.816;9.482;2023-06-22T03:07:44;11.82;;;6.18;;
69956;SDS011;57283;54.816;9.482;2023-06-22T03:10:13;12.20;;;6.60;;
69956;SDS011;57283;54.816;9.482;2023-06-22T03:12:42;15.70;;;7.97;;
69956;SDS011;57283;54.816;9.482;2023-06-22T03:15:10;13.20;;;7.50;;
69956;SDS011;57283;54.816;9.482;2023-06-22T03:17:38;13.82;;;7.25;;
69956;SDS011;57283;54.816;9.482;2023-06-22T03:20:07;12.73;;;7.20;;
69956;SDS011;57283;54.816;9.482;2023-06-22T03:22:37;13.87;;;7.67;;
69956;SDS011;57283;54.816;9.482;2023-06-22T03:25:05;12.98;;;7.28;;
69956;SDS011;57283;54.816;9.482;2023-06-22T03:27:36;13.90;;;7.60;;
69956;SDS011;57283;54.816;9.482;2023-06-22T03:30:06;13.38;;;7.65;;
69956;SDS011;57283;54.816;9.482;2023-06-22T03:32:34;14.38;;;8.05;;
69956;SDS011;57283;54.816;9.482;2023-06-22T03:35:02;12.97;;;7.53;;
69956;SDS011;57283;54.816;9.482;2023-06-22T03:37:30;15.02;;;8.45;;
69956;SDS011;57283;54.816;9.482;2023-06-22T03:39:58;14.25;;;8.15;;
69956;SDS011;57283;54.816;9.482;2023-06-22T03:42:25;14.93;;;8.27;;
69956;SDS011;57283;54.816;9.482;2023-06-22T03:44:53;16.58;;;8.60;;
69956;SDS011;57283;54.816;9.482;2023-06-22T03:47:22;14.70;;;8.50;;
69956;SDS011;57283;54.816;9.482;2023-06-22T03:49:50;14.82;;;8.45;;
69956;SDS011;57283;54.816;9.482;2023-06-22T03:52:21;15.98;;;8.80;;
69956;SDS011;57283;54.816;9.482;2023-06-22T03:54:49;16.25;;;8.80;;
69956;SDS011;57283;54.816;9.482;2023-06-22T03:57:17;16.70;;;9.60;;
69956;SDS011;57283;54.816;9.482;2023-06-22T03:59:44;15.87;;;9.10;;
69956;SDS011;57283;54.816;9.482;2023-06-22T04:02:12;14.40;;;8.55;;
69956;SDS011;57283;54.816;9.482;2023-06-22T04:04:41;16.77;;;9.35;;
69956;SDS011;57283;54.816;9.482;2023-06-22T04:07:09;15.40;;;8.88;;
69956;SDS011;57283;54.816;9.482;2023-06-22T04:09:36;15.23;;;9.20;;
69956;SDS011;57283;54.816;9.482;2023-06-22T04:12:04;15.60;;;9.00;;
69956;SDS011;57283;54.816;9.482;2023-06-22T04:14:32;14.88;;;8.63;;
69956;SDS011;57283;54.816;9.482;2023-06-22T04:17:01;14.40;;;8.77;;
69956;SDS011;57283;54.816;9.482;2023-06-22T04:19:28;13.45;;;7.85;;
69956;SDS011;57283;54.816;9.482;2023-06-22T04:21:57;13.43;;;8.38;;
69956;SDS011;57283;54.816;9.482;2023-06-22T04:24:25;14.17;;;8.57;;
69956;SDS011;57283;54.816;9.482;2023-06-22T04:26:53;15.68;;;8.38;;
69956;SDS011;57283;54.816;9.482;2023-06-22T04:29:21;11.45;;;7.70;;
69956;SDS011;57283;54.816;9.482;2023-06-22T04:31:56;13.70;;;7.60;;
69956;SDS011;57283;54.816;9.482;2023-06-22T04:34:25;13.00;;;8.20;;
69956;SDS011;57283;54.816;9.482;2023-06-22T04:36:53;15.87;;;8.30;;
69956;SDS011;57283;54.816;9.482;2023-06-22T04:39:22;11.60;;;7.47;;
69956;SDS011;57283;54.816;9.482;2023-06-22T04:41:50;13.15;;;7.50;;
69956;SDS011;57283;54.816;9.482;2023-06-22T04:44:18;13.18;;;7.10;;
69956;SDS011;57283;54.816;9.482;2023-06-22T04:46:50;11.27;;;7.05;;
69956;SDS011;57283;54.816;9.482;2023-06-22T04:49:20;10.80;;;6.80;;
69956;SDS011;57283;54.816;9.482;2023-06-22T04:51:48;10.10;;;7.10;;
69956;SDS011;57283;54.816;9.482;2023-06-22T04:54:18;11.50;;;7.38;;
69956;SDS011;57283;54.816;9.482;2023-06-22T04:56:47;12.63;;;6.55;;
69956;SDS011;57283;54.816;9.482;2023-06-22T04:59:22;10.27;;;6.55;;
69956;SDS011;57283;54.816;9.482;2023-06-22T05:01:55;10.43;;;5.73;;
69956;SDS011;57283;54.816;9.482;2023-06-22T05:04:22;9.20;;;6.30;;
69956;SDS011;57283;54.816;9.482;2023-06-22T05:06:51;10.18;;;6.28;;
69956;SDS011;57283;54.816;9.482;2023-06-22T05:09:19;9.40;;;6.00;;
69956;SDS011;57283;54.816;9.482;2023-06-22T05:11:48;9.32;;;5.82;;
69956;SDS011;57283;54.816;9.482;2023-06-22T05:14:15;9.47;;;5.80;;
69956;SDS011;57283;54.816;9.482;2023-06-22T05:16:43;9.90;;;6.30;;
69956;SDS011;57283;54.816;9.482;2023-06-22T05:19:11;10.25;;;6.65;;
69956;SDS011;57283;54.816;9.482;2023-06-22T05:21:39;9.00;;;6.03;;
69956;SDS011;57283;54.816;9.482;2023-06-22T05:24:06;11.80;;;6.55;;
69956;SDS011;57283;54.816;9.482;2023-06-22T05:26:34;9.20;;;6.73;;
69956;SDS011;57283;54.816;9.482;2023-06-22T05:29:21;9.50;;;5.82;;
69956;SDS011;57283;54.816;9.482;2023-06-22T05:32:07;9.65;;;5.88;;
69956;SDS011;57283;54.816;9.482;2023-06-22T05:34:52;8.95;;;6.13;;
69956;SDS011;57283;54.816;9.482;2023-06-22T05:37:19;8.73;;;5.82;;
69956;SDS011;57283;54.816;9.482;2023-06-22T05:39:47;9.93;;;5.87;;
69956;SDS011;57283;54.816;9.482;2023-06-22T05:42:15;9.30;;;5.78;;
69956;SDS011;57283;54.816;9.482;2023-06-22T05:44:44;9.27;;;5.57;;
69956;SDS011;57283;54.816;9.482;2023-06-22T05:47:13;9.60;;;5.80;;
69956;SDS011;57283;54.816;9.482;2023-06-22T05:49:40;8.07;;;5.25;;
69956;SDS011;57283;54.816;9.482;2023-06-22T05:52:08;7.67;;;4.80;;
69956;SDS011;57283;54.816;9.482;2023-06-22T05:54:35;7.07;;;5.13;;
69956;SDS011;57283;54.816;9.482;2023-06-22T05:57:05;7.50;;;5.30;;
69956;SDS011;57283;54.816;9.482;2023-06-22T05:59:32;10.02;;;5.13;;
69956;SDS011;57283;54.816;9.482;2023-06-22T06:02:02;8.40;;;5.10;;
69956;SDS011;57283;54.816;9.482;2023-06-22T06:04:29;7.27;;;4.80;;
69956;SDS011;57283;54.816;9.482;2023-06-22T06:06:57;6.57;;;4.22;;
69956;SDS011;57283;54.816;9.482;2023-06-22T06:09:24;7.45;;;4.50;;
69956;SDS011;57283;54.816;9.482;2023-06-22T06:11:52;6.93;;;4.90;;
69956;SDS011;57283;54.816;9.482;2023-06-22T06:14:20;6.75;;;5.25;;
69956;SDS011;57283;54.816;9.482;2023-06-22T06:16:48;6.87;;;4.60;;
69956;SDS011;57283;54.816;9.482;2023-06-22T06:19:17;7.07;;;4.80;;
69956;SDS011;57283;54.816;9.482;2023-06-22T06:21:44;7.38;;;4.85;;
69956;SDS011;57283;54.816;9.482;2023-06-22T06:24:12;7.47;;;5.57;;
69956;SDS011;57283;54.816;9.482;2023-06-22T06:26:40;7.93;;;4.85;;
69956;SDS011;57283;54.816;9.482;2023-06-22T06:29:09;7.60;;;4.95;;
69956;SDS011;57283;54.816;9.482;2023-06-22T06:31:36;6.30;;;4.30;;
69956;SDS011;57283;54.816;9.482;2023-06-22T06:34:04;6.40;;;4.78;;
69956;SDS011;57283;54.816;9.482;2023-06-22T06:36:33;6.35;;;4.43;;
69956;SDS011;57283;54.816;9.482;2023-06-22T06:39:01;7.18;;;4.30;;
69956;SDS011;57283;54.816;9.482;2023-06-22T06:41:29;6.80;;;3.75;;
69956;SDS011;57283;54.816;9.482;2023-06-22T06:43:57;6.05;;;3.83;;
69956;SDS011;57283;54.816;9.482;2023-06-22T06:46:24;7.33;;;5.07;;
69956;SDS011;57283;54.816;9.482;2023-06-22T06:48:52;7.17;;;4.30;;
69956;SDS011;57283;54.816;9.482;2023-06-22T06:51:20;11.95;;;9.20;;
69956;SDS011;57283;54.816;9.482;2023-06-22T06:53:49;6.03;;;4.43;;
69956;SDS011;57283;54.816;9.482;2023-06-22T06:56:16;5.63;;;4.32;;
69956;SDS011;57283;54.816;9.482;2023-06-22T06:58:44;5.47;;;3.67;;
69956;SDS011;57283;54.816;9.482;2023-06-22T07:01:12;5.30;;;3.65;;
69956;SDS011;57283;54.816;9.482;2023-06-22T07:03:39;6.47;;;3.80;;
69956;SDS011;57283;54.816;9.482;2023-06-22T07:06:08;4.68;;;3.72;;
69956;SDS011;57283;54.816;9.482;2023-06-22T07:08:35;5.30;;;3.70;;
69956;SDS011;57283;54.816;9.482;2023-06-22T07:11:04;4.60;;;3.53;;
69956;SDS011;57283;54.816;9.482;2023-06-22T07:13:32;6.80;;;3.75;;
69956;SDS011;57283;54.816;9.482;2023-06-22T07:16:00;5.60;;;3.80;;
69956;SDS011;57283;54.816;9.482;2023-06-22T07:18:27;4.93;;;3.83;;
69956;SDS011;57283;54.816;9.482;2023-06-22T07:20:55;5.03;;;3.75;;
69956;SDS011;57283;54.816;9.482;2023-06-22T07:23:23;4.80;;;3.40;;
69956;SDS011;57283;54.816;9.482;2023-06-22T07:25:50;4.60;;;3.50;;
69956;SDS011;57283;54.816;9.482;2023-06-22T07:28:19;4.43;;;3.20;;
69956;SDS011;57283;54.816;9.482;2023-06-22T07:30:47;4.70;;;3.25;;
69956;SDS011;57283;54.816;9.482;2023-06-22T07:33:15;4.90;;;3.23;;
69956;SDS011;57283;54.816;9.482;2023-06-22T07:35:43;4.70;;;3.60;;
69956;SDS011;57283;54.816;9.482;2023-06-22T07:38:11;4.47;;;3.30;;
69956;SDS011;57283;54.816;9.482;2023-06-22T07:40:39;6.65;;;3.90;;
69956;SDS011;57283;54.816;9.482;2023-06-22T07:43:08;4.50;;;3.58;;
69956;SDS011;57283;54.816;9.482;2023-06-22T07:45:37;4.70;;;3.40;;
69956;SDS011;57283;54.816;9.482;2023-06-22T07:48:06;4.50;;;3.38;;
69956;SDS011;57283;54.816;9.482;2023-06-22T07:50:34;4.55;;;3.50;;
69956;SDS011;57283;54.816;9.482;2023-06-22T07:53:02;5.30;;;3.70;;
69956;SDS011;57283;54.816;9.482;2023-06-22T07:55:29;5.00;;;3.78;;
69956;SDS011;57283;54.816;9.482;2023-06-22T07:57:57;5.00;;;4.07;;
69956;SDS011;57283;54.816;9.482;2023-06-22T08:00:25;5.23;;;3.80;;
69956;SDS011;57283;54.816;9.482;2023-06-22T08:02:54;5.40;;;3.80;;
69956;SDS011;57283;54.816;9.482;2023-06-22T08:05:22;5.50;;;3.97;;
69956;SDS011;57283;54.816;9.482;2023-06-22T08:07:50;5.32;;;4.60;;
69956;SDS011;57283;54.816;9.482;2023-06-22T08:10:18;5.85;;;3.53;;
69956;SDS011;57283;54.816;9.482;2023-06-22T08:12:46;5.53;;;3.20;;
69956;SDS011;57283;54.816;9.482;2023-06-22T08:15:13;6.05;;;3.75;;
69956;SDS011;57283;54.816;9.482;2023-06-22T08:17:41;5.20;;;3.60;;
69956;SDS011;57283;54.816;9.482;2023-06-22T08:20:11;5.10;;;3.70;;
69956;SDS011;57283;54.816;9.482;2023-06-22T08:22:39;5.00;;;3.63;;
69956;SDS011;57283;54.816;9.482;2023-06-22T08:25:07;5.07;;;3.67;;
69956;SDS011;57283;54.816;9.482;2023-06-22T08:27:35;5.90;;;3.80;;
69956;SDS011;57283;54.816;9.482;2023-06-22T08:30:03;4.45;;;3.63;;
69956;SDS011;57283;54.816;9.482;2023-06-22T08:32:31;4.70;;;3.70;;
69956;SDS011;57283;54.816;9.482;2023-06-22T08:35:00;5.40;;;3.90;;
69956;SDS011;57283;54.816;9.482;2023-06-22T08:37:29;5.47;;;3.92;;
69956;SDS011;57283;54.816;9.482;2023-06-22T08:39:58;4.72;;;3.58;;
69956;SDS011;57283;54.816;9.482;2023-06-22T08:42:26;5.25;;;4.05;;
69956;SDS011;57283;54.816;9.482;2023-06-22T08:44:54;5.77;;;3.80;;
69956;SDS011;57283;54.816;9.482;2023-06-22T08:47:21;4.93;;;3.70;;
69956;SDS011;57283;54.816;9.482;2023-06-22T08:49:49;5.22;;;3.80;;
69956;SDS011;57283;54.816;9.482;2023-06-22T08:52:17;6.30;;;4.38;;
69956;SDS011;57283;54.816;9.482;2023-06-22T08:54:47;5.32;;;4.43;;
69956;SDS011;57283;54.816;9.482;2023-06-22T08:57:15;4.63;;;3.70;;
69956;SDS011;57283;54.816;9.482;2023-06-22T08:59:42;4.40;;;3.50;;
69956;SDS011;57283;54.816;9.482;2023-06-22T09:02:10;5.03;;;3.60;;
69956;SDS011;57283;54.816;9.482;2023-06-22T09:04:38;6.80;;;4.80;;
69956;SDS011;57283;54.816;9.482;2023-06-22T09:07:06;5.10;;;3.30;;
69956;SDS011;57283;54.816;9.482;2023-06-22T09:09:34;4.30;;;3.30;;
69956;SDS011;57283;54.816;9.482;2023-06-22T09:12:03;5.65;;;3.30;;
69956;SDS011;57283;54.816;9.482;2023-06-22T09:14:31;4.03;;;3.30;;
69956;SDS011;57283;54.816;9.482;2023-06-22T09:16:58;4.90;;;3.50;;
69956;SDS011;57283;54.816;9.482;2023-06-22T09:19:26;4.43;;;3.65;;
69956;SDS011;57283;54.816;9.482;2023-06-22T09:21:54;5.15;;;3.63;;
69956;SDS011;57283;54.816;9.482;2023-06-22T09:24:22;4.55;;;3.53;;
69956;SDS011;57283;54.816;9.482;2023-06-22T09:26:49;5.40;;;3.72;;
69956;SDS011;57283;54.816;9.482;2023-06-22T09:29:19;5.45;;;3.20;;
69956;SDS011;57283;54.816;9.482;2023-06-22T09:31:46;4.80;;;4.17;;
69956;SDS011;57283;54.816;9.482;2023-06-22T09:34:14;5.20;;;3.70;;
69956;SDS011;57283;54.816;9.482;2023-06-22T09:36:42;4.75;;;3.70;;
69956;SDS011;57283;54.816;9.482;2023-06-22T09:39:09;4.93;;;3.63;;
69956;SDS011;57283;54.816;9.482;2023-06-22T09:41:37;4.65;;;3.95;;
69956;SDS011;57283;54.816;9.482;2023-06-22T09:44:04;5.93;;;3.33;;
69956;SDS011;57283;54.816;9.482;2023-06-22T09:46:33;4.03;;;3.50;;
69956;SDS011;57283;54.816;9.482;2023-06-22T09:49:01;5.00;;;3.45;;
69956;SDS011;57283;54.816;9.482;2023-06-22T09:51:29;4.60;;;4.03;;
69956;SDS011;57283;54.816;9.482;2023-06-22T09:53:56;5.53;;;4.30;;
69956;SDS011;57283;54.816;9.482;2023-06-22T09:56:24;5.13;;;3.87;;
69956;SDS011;57283;54.816;9.482;2023-06-22T09:58:55;5.07;;;4.20;;
69956;SDS011;57283;54.816;9.482;2023-06-22T10:01:40;4.75;;;3.67;;
69956;SDS011;57283;54.816;9.482;2023-06-22T10:04:08;4.45;;;3.00;;
69956;SDS011;57283;54.816;9.482;2023-06-22T10:06:36;4.55;;;3.50;;
69956;SDS011;57283;54.816;9.482;2023-06-22T10:09:07;4.97;;;3.72;;
69956;SDS011;57283;54.816;9.482;2023-06-22T10:11:35;4.88;;;3.70;;
69956;SDS011;57283;54.816;9.482;2023-06-22T10:14:03;4.22;;;3.83;;
69956;SDS011;57283;54.816;9.482;2023-06-22T10:16:31;4.60;;;3.50;;
69956;SDS011;57283;54.816;9.482;2023-06-22T10:19:00;5.15;;;3.58;;
69956;SDS011;57283;54.816;9.482;2023-06-22T10:21:28;4.20;;;2.50;;
69956;SDS011;57283;54.816;9.482;2023-06-22T10:23:55;4.50;;;3.10;;
69956;SDS011;57283;54.816;9.482;2023-06-22T10:26:23;4.93;;;3.00;;
69956;SDS011;57283;54.816;9.482;2023-06-22T10:28:51;4.53;;;3.58;;
69956;SDS011;57283;54.816;9.482;2023-06-22T10:31:38;4.25;;;3.38;;
69956;SDS011;57283;54.816;9.482;2023-06-22T10:34:07;4.97;;;3.40;;
69956;SDS011;57283;54.816;9.482;2023-06-22T10:36:35;3.90;;;3.20;;
69956;SDS011;57283;54.816;9.482;2023-06-22T10:39:02;3.85;;;2.92;;
69956;SDS011;57283;54.816;9.482;2023-06-22T10:41:30;4.47;;;3.58;;
69956;SDS011;57283;54.816;9.482;2023-06-22T10:43:58;5.17;;;4.00;;
69956;SDS011;57283;54.816;9.482;2023-06-22T10:46:25;4.50;;;3.40;;
69956;SDS011;57283;54.816;9.482;2023-06-22T10:48:54;4.15;;;2.92;;
69956;SDS011;57283;54.816;9.482;2023-06-22T10:51:24;4.00;;;3.10;;
69956;SDS011;57283;54.816;9.482;2023-06-22T10:53:54;4.45;;;3.35;;
69956;SDS011;57283;54.816;9.482;2023-06-22T10:56:22;4.30;;;3.00;;
69956;SDS011;57283;54.816;9.482;2023-06-22T10:58:49;4.18;;;2.80;;
69956;SDS011;57283;54.816;9.482;2023-06-22T11:01:17;5.30;;;2.88;;
69956;SDS011;57283;54.816;9.482;2023-06-22T11:04:02;4.40;;;3.00;;
69956;SDS011;57283;54.816;9.482;2023-06-22T11:06:32;5.15;;;3.13;;
69956;SDS011;57283;54.816;9.482;2023-06-22T11:08:59;4.80;;;2.80;;
69956;SDS011;57283;54.816;9.482;2023-06-22T11:11:47;4.53;;;3.47;;
69956;SDS011;57283;54.816;9.482;2023-06-22T11:14:15;4.68;;;2.80;;
69956;SDS011;57283;54.816;9.482;2023-06-22T11:16:42;4.00;;;2.97;;
69956;SDS011;57283;54.816;9.482;2023-06-22T11:19:10;4.32;;;3.03;;
69956;SDS011;57283;54.816;9.482;2023-06-22T11:21:39;4.57;;;3.53;;
69956;SDS011;57283;54.816;9.482;2023-06-22T11:24:06;4.00;;;2.83;;
69956;SDS011;57283;54.816;9.482;2023-06-22T11:26:34;4.43;;;3.08;;
69956;SDS011;57283;54.816;9.482;2023-06-22T11:29:03;4.97;;;3.20;;
69956;SDS011;57283;54.816;9.482;2023-06-22T11:31:31;4.27;;;3.37;;
69956;SDS011;57283;54.816;9.482;2023-06-22T11:33:59;4.00;;;2.95;;
69956;SDS011;57283;54.816;9.482;2023-06-22T11:36:27;4.20;;;3.30;;
69956;SDS011;57283;54.816;9.482;2023-06-22T11:38:56;5.07;;;3.97;;
69956;SDS011;57283;54.816;9.482;2023-06-22T11:41:24;4.65;;;3.30;;
69956;SDS011;57283;54.816;9.482;2023-06-22T11:43:52;4.45;;;3.10;;
69956;SDS011;57283;54.816;9.482;2023-06-22T11:46:19;4.05;;;3.22;;
69956;SDS011;57283;54.816;9.482;2023-06-22T11:48:47;8.73;;;3.10;;
69956;SDS011;57283;54.816;9.482;2023-06-22T11:51:20;4.10;;;2.70;;
69956;SDS011;57283;54.816;9.482;2023-06-22T11:53:48;4.20;;;3.27;;
69956;SDS011;57283;54.816;9.482;2023-06-22T11:56:17;4.43;;;3.00;;
69956;SDS011;57283;54.816;9.482;2023-06-22T11:58:44;4.10;;;3.00;;
69956;SDS011;57283;54.816;9.482;2023-06-22T12:01:12;4.35;;;2.75;;
69956;SDS011;57283;54.816;9.482;2023-06-22T12:03:41;3.95;;;2.70;;
69956;SDS011;57283;54.816;9.482;2023-06-22T12:06:10;4.27;;;2.67;;
69956;SDS011;57283;54.816;9.482;2023-06-22T12:08:37;4.30;;;2.87;;
69956;SDS011;57283;54.816;9.482;2023-06-22T12:11:06;4.72;;;2.60;;
69956;SDS011;57283;54.816;9.482;2023-06-22T12:13:35;4.45;;;2.95;;
69956;SDS011;57283;54.816;9.482;2023-06-22T12:16:03;3.92;;;2.60;;
69956;SDS011;57283;54.816;9.482;2023-06-22T12:18:32;4.03;;;2.95;;
69956;SDS011;57283;54.816;9.482;2023-06-22T12:21:00;5.83;;;2.90;;
69956;SDS011;57283;54.816;9.482;2023-06-22T12:23:27;4.67;;;2.50;;
69956;SDS011;57283;54.816;9.482;2023-06-22T12:25:55;4.45;;;2.53;;
69956;SDS011;57283;54.816;9.482;2023-06-22T12:28:22;5.28;;;3.03;;
69956;SDS011;57283;54.816;9.482;2023-06-22T12:30:51;4.70;;;2.65;;
69956;SDS011;57283;54.816;9.482;2023-06-22T12:33:19;4.47;;;2.92;;
69956;SDS011;57283;54.816;9.482;2023-06-22T12:35:47;5.03;;;2.70;;
69956;SDS011;57283;54.816;9.482;2023-06-22T12:38:15;4.40;;;2.30;;
69956;SDS011;57283;54.816;9.482;2023-06-22T12:40:43;4.10;;;2.60;;
69956;SDS011;57283;54.816;9.482;2023-06-22T12:43:10;4.15;;;2.40;;
69956;SDS011;57283;54.816;9.482;2023-06-22T12:45:38;4.45;;;2.50;;
69956;SDS011;57283;54.816;9.482;2023-06-22T12:48:08;3.80;;;2.23;;
69956;SDS011;57283;54.816;9.482;2023-06-22T12:50:35;4.78;;;2.47;;
69956;SDS011;57283;54.816;9.482;2023-06-22T12:53:03;4.10;;;2.60;;
69956;SDS011;57283;54.816;9.482;2023-06-22T12:55:32;5.35;;;2.58;;
69956;SDS011;57283;54.816;9.482;2023-06-22T12:58:00;4.18;;;2.58;;
69956;SDS011;57283;54.816;9.482;2023-06-22T13:00:27;4.07;;;2.43;;
69956;SDS011;57283;54.816;9.482;2023-06-22T13:02:55;4.75;;;2.72;;
69956;SDS011;57283;54.816;9.482;2023-06-22T13:05:24;4.22;;;2.67;;
69956;SDS011;57283;54.816;9.482;2023-06-22T13:07:53;4.50;;;3.13;;
69956;SDS011;57283;54.816;9.482;2023-06-22T13:10:21;5.30;;;2.42;;
69956;SDS011;57283;54.816;9.482;2023-06-22T13:12:49;5.40;;;2.40;;
69956;SDS011;57283;54.816;9.482;2023-06-22T13:15:16;3.90;;;2.50;;
69956;SDS011;57283;54.816;9.482;2023-06-22T13:17:44;5.40;;;2.92;;
69956;SDS011;57283;54.816;9.482;2023-06-22T13:20:12;4.60;;;2.38;;
69956;SDS011;57283;54.816;9.482;2023-06-22T13:22:41;3.85;;;2.35;;
69956;SDS011;57283;54.816;9.482;2023-06-22T13:25:10;4.17;;;2.50;;
69956;SDS011;57283;54.816;9.482;2023-06-22T13:27:39;5.25;;;2.40;;
69956;SDS011;57283;54.816;9.482;2023-06-22T13:30:07;4.78;;;2.45;;
69956;SDS011;57283;54.816;9.482;2023-06-22T13:32:52;4.60;;;2.30;;
69956;SDS011;57283;54.816;9.482;2023-06-22T13:35:37;4.28;;;2.50;;
69956;SDS011;57283;54.816;9.482;2023-06-22T13:38:23;5.50;;;2.53;;
69956;SDS011;57283;54.816;9.482;2023-06-22T13:41:08;4.60;;;2.67;;
69956;SDS011;57283;54.816;9.482;2023-06-22T13:43:54;4.18;;;2.90;;
69956;SDS011;57283;54.816;9.482;2023-06-22T13:46:39;4.30;;;2.60;;
69956;SDS011;57283;54.816;9.482;2023-06-22T13:49:24;4.07;;;2.65;;
69956;SDS011;57283;54.816;9.482;2023-06-22T13:52:09;4.57;;;2.83;;
69956;SDS011;57283;54.816;9.482;2023-06-22T13:54:40;3.75;;;2.33;;
69956;SDS011;57283;54.816;9.482;2023-06-22T13:57:08;4.90;;;2.58;;
69956;SDS011;57283;54.816;9.482;2023-06-22T13:59:35;4.30;;;2.28;;
69956;SDS011;57283;54.816;9.482;2023-06-22T14:02:03;4.18;;;2.38;;
69956;SDS011;57283;54.816;9.482;2023-06-22T14:04:31;4.87;;;2.37;;
69956;SDS011;57283;54.816;9.482;2023-06-22T14:06:59;4.47;;;2.60;;
69956;SDS011;57283;54.816;9.482;2023-06-22T14:09:27;5.50;;;2.70;;
69956;SDS011;57283;54.816;9.482;2023-06-22T14:11:56;4.10;;;2.40;;
69956;SDS011;57283;54.816;9.482;2023-06-22T14:14:23;4.35;;;2.67;;
69956;SDS011;57283;54.816;9.482;2023-06-22T14:16:51;4.37;;;2.30;;
69956;SDS011;57283;54.816;9.482;2023-06-22T14:19:18;5.18;;;2.38;;
69956;SDS011;57283;54.816;9.482;2023-06-22T14:21:46;3.90;;;2.40;;
69956;SDS011;57283;54.816;9.482;2023-06-22T14:24:14;4.82;;;2.70;;
69956;SDS011;57283;54.816;9.482;2023-06-22T14:26:41;3.85;;;2.30;;
69956;SDS011;57283;54.816;9.482;2023-06-22T14:29:10;4.20;;;2.50;;
69956;SDS011;57283;54.816;9.482;2023-06-22T14:31:38;4.10;;;2.20;;
69956;SDS011;57283;54.816;9.482;2023-06-22T14:34:06;4.03;;;2.75;;
69956;SDS011;57283;54.816;9.482;2023-06-22T14:36:33;4.95;;;3.08;;
69956;SDS011;57283;54.816;9.482;2023-06-22T14:39:01;4.63;;;2.80;;
69956;SDS011;57283;54.816;9.482;2023-06-22T14:41:29;4.83;;;2.73;;
69956;SDS011;57283;54.816;9.482;2023-06-22T14:43:56;4.15;;;2.53;;
69956;SDS011;57283;54.816;9.482;2023-06-22T14:46:25;4.32;;;2.88;;
69956;SDS011;57283;54.816;9.482;2023-06-22T14:48:53;4.40;;;2.50;;
69956;SDS011;57283;54.816;9.482;2023-06-22T14:51:21;4.65;;;2.65;;
69956;SDS011;57283;54.816;9.482;2023-06-22T14:53:49;5.03;;;2.47;;